Canela, Brazil
Current Conditions -  °F | °C
As of 4:00 PM on Friday 19 Dec 2014 (Local Time) from SBCO Reporting Station
Scattered Clouds Scattered Clouds  
Wind Chill: 88°   Ceiling: Unl
Heat Index: 88°   Visibility: 6mi
Dew Point: 57°   Wind: 14mph
Humidity: 35%   Direction: 130°SE
Pressure: 29.71"   Gusts: NA
Location:  29.37°S, 50.82°W
Report Text: SBCO 191800Z 13012KT 090V170 9999 SCT050 FEW055TCU 31/14 Q1006
Loading
Personal Weather Stations






























Interactive Weather Map New forecast layout! Learn more

10-Day Weather Forecast

Advertisements
Track Severe Weather on mobile